Archiv-/Tagesdaten

--Timestamp---	Temp	Chill	HIndex	Humid	Dewpt	 Wind 	HiWind	WindDir	Rain 	Barom	Solar	 ET  	 UV 
--------------	----	-----	------	-----	-----	------	------	-------	-----	-----	-----	-----	----
20090816 00:00	18.7	18.7	18.7	83	15.7	5	8	180	0.0	1016.0	0	0.025	0.0
20090816 00:05	18.6	18.6	18.6	83	15.7	5	8	180	0.0	1016.0	0	0.000	0.0
20090816 00:10	18.6	18.6	18.6	83	15.6	5	10	180	0.0	1016.1	0	0.000	0.0
20090816 00:15	18.4	18.4	18.4	83	15.5	5	10	180	0.0	1016.1	0	0.000	0.0
20090816 00:20	18.3	18.3	18.3	83	15.4	3	8	180	0.0	1016.1	0	0.000	0.0
20090816 00:25	18.3	18.3	18.3	83	15.3	3	8	180	0.0	1016.1	0	0.000	0.0
20090816 00:30	18.2	18.2	18.2	83	15.3	5	10	180	0.0	1016.2	0	0.000	0.0
20090816 00:35	18.2	18.2	18.2	82	15.1	6	10	180	0.0	1016.2	0	0.000	0.0
20090816 00:40	18.2	18.2	18.2	82	15.0	5	8	180	0.0	1016.1	0	0.000	0.0
20090816 00:45	18.1	18.1	18.1	82	14.9	5	10	180	0.0	1016.1	0	0.000	0.0
20090816 00:50	18.0	18.0	18.0	81	14.7	5	10	202	0.0	1016.1	0	0.000	0.0
20090816 00:55	17.9	17.9	17.9	81	14.6	6	11	202	0.0	1016.2	0	0.000	0.0
20090816 01:00	17.9	17.9	17.9	81	14.6	3	6	202	0.0	1016.1	0	0.025	0.0
20090816 01:05	17.8	17.8	17.8	81	14.5	3	6	202	0.0	1016.1	0	0.000	0.0
20090816 01:10	17.8	17.8	17.8	81	14.5	5	10	202	0.0	1016.0	0	0.000	0.0
20090816 01:15	17.7	17.7	17.7	81	14.4	6	10	202	0.0	1016.0	0	0.000	0.0
20090816 01:20	17.7	17.7	17.7	81	14.4	6	11	202	0.0	1016.0	0	0.000	0.0
20090816 01:25	17.7	17.7	17.7	80	14.2	5	10	202	0.0	1016.0	0	0.000	0.0
20090816 01:30	17.7	17.7	17.7	80	14.2	3	8	202	0.0	1016.0	0	0.000	0.0
20090816 01:35	17.6	17.6	17.6	81	14.3	3	6	202	0.0	1015.9	0	0.000	0.0
20090816 01:40	17.6	17.6	17.6	81	14.3	2	6	202	0.0	1015.9	0	0.000	0.0
20090816 01:45	17.5	17.5	17.5	82	14.4	2	5	202	0.0	1015.9	0	0.000	0.0
20090816 01:50	17.4	17.4	17.4	82	14.3	2	5	202	0.0	1016.0	0	0.000	0.0
20090816 01:55	17.3	17.3	17.3	82	14.2	3	6	202	0.0	1016.0	0	0.000	0.0
20090816 02:00	17.2	17.2	17.2	83	14.3	2	5	202	0.0	1016.0	0	0.025	0.0
20090816 02:05	17.1	17.1	17.1	83	14.1	3	8	202	0.0	1015.9	0	0.000	0.0
20090816 02:10	17.0	17.0	17.0	83	14.1	5	11	202	0.0	1015.9	0	0.000	0.0
20090816 02:15	16.9	16.9	16.9	83	14.0	3	6	202	0.0	1015.9	0	0.000	0.0
20090816 02:20	16.9	16.9	16.9	83	14.0	5	10	202	0.0	1015.9	0	0.000	0.0
20090816 02:25	16.9	16.9	16.9	83	14.0	6	10	202	0.0	1015.9	0	0.000	0.0
20090816 02:30	16.9	16.9	16.9	83	14.0	6	10	202	0.0	1015.9	0	0.000	0.0
20090816 02:35	16.9	16.9	16.9	83	14.0	5	8	202	0.0	1015.9	0	0.000	0.0
20090816 02:40	16.8	16.8	16.8	84	14.1	5	8	202	0.0	1015.9	0	0.000	0.0
20090816 02:45	16.8	16.8	16.8	84	14.1	5	8	202	0.0	1015.9	0	0.000	0.0
20090816 02:50	16.7	16.7	16.7	84	14.0	5	10	202	0.0	1015.9	0	0.000	0.0
20090816 02:55	16.7	16.7	16.7	84	13.9	5	8	202	0.0	1015.9	0	0.000	0.0
20090816 03:00	16.6	16.6	16.6	84	13.9	2	6	202	0.0	1015.9	0	0.025	0.0
20090816 03:05	16.6	16.6	16.6	84	13.8	3	6	202	0.0	1015.9	0	0.000	0.0
20090816 03:10	16.6	16.6	16.6	84	13.8	3	8	202	0.0	1015.9	0	0.000	0.0
20090816 03:15	16.6	16.6	16.6	84	13.8	3	6	202	0.0	1015.9	0	0.000	0.0
20090816 03:20	16.6	16.6	16.6	84	13.8	5	6	202	0.0	1015.9	0	0.000	0.0
20090816 03:25	16.5	16.5	16.5	84	13.8	5	10	202	0.0	1015.9	0	0.000	0.0
20090816 03:30	16.5	16.5	16.5	84	13.8	5	8	202	0.0	1016.0	0	0.000	0.0
20090816 03:35	16.4	16.4	16.4	84	13.7	5	8	202	0.0	1016.0	0	0.000	0.0
20090816 03:40	16.4	16.4	16.4	84	13.7	3	8	202	0.0	1015.9	0	0.000	0.0
20090816 03:45	16.3	16.3	16.3	84	13.6	3	8	202	0.0	1015.9	0	0.000	0.0
20090816 03:50	16.3	16.3	16.3	84	13.6	5	11	202	0.0	1015.9	0	0.000	0.0
20090816 03:55	16.4	16.4	16.4	84	13.7	5	10	202	0.0	1015.8	0	0.000	0.0
20090816 04:00	16.4	16.4	16.4	84	13.7	6	10	202	0.0	1015.9	0	0.025	0.0
20090816 04:05	16.4	16.4	16.4	84	13.7	6	10	202	0.0	1015.6	0	0.000	0.0
20090816 04:10	16.4	16.4	16.4	83	13.5	5	10	202	0.0	1015.6	0	0.000	0.0
20090816 04:15	16.4	16.4	16.4	83	13.5	5	10	202	0.0	1015.6	0	0.000	0.0
20090816 04:20	16.4	16.4	16.4	83	13.5	5	8	202	0.0	1015.5	0	0.000	0.0
20090816 04:25	16.4	16.4	16.4	83	13.5	5	10	202	0.0	1015.6	0	0.000	0.0
20090816 04:30	16.4	16.4	16.4	83	13.5	5	10	202	0.0	1015.5	0	0.000	0.0
20090816 04:35	16.3	16.3	16.3	83	13.4	6	10	202	0.0	1015.5	0	0.000	0.0
20090816 04:40	16.3	16.3	16.3	83	13.4	5	10	202	0.0	1015.5	0	0.000	0.0
20090816 04:45	16.3	16.3	16.3	83	13.4	5	10	202	0.0	1015.6	0	0.000	0.0
20090816 04:50	16.3	16.3	16.3	83	13.4	6	10	202	0.0	1015.6	0	0.000	0.0
20090816 04:55	16.3	16.3	16.3	83	13.4	6	10	202	0.0	1015.7	0	0.000	0.0
20090816 05:00	16.3	16.3	16.3	84	13.6	6	11	202	0.0	1015.6	0	0.025	0.0
20090816 05:05	16.2	16.2	16.2	84	13.5	6	10	202	0.0	1015.6	0	0.000	0.0
20090816 05:10	16.2	16.2	16.2	84	13.5	6	10	202	0.0	1015.6	0	0.000	0.0
20090816 05:15	16.2	16.2	16.2	84	13.5	6	11	202	0.0	1015.6	0	0.000	0.0
20090816 05:20	16.2	16.2	16.2	84	13.5	6	10	202	0.0	1015.6	0	0.000	0.0
20090816 05:25	16.2	16.2	16.2	84	13.5	6	10	202	0.0	1015.7	0	0.000	0.0
20090816 05:30	16.1	16.1	16.1	84	13.4	6	11	202	0.0	1015.6	0	0.000	0.0
20090816 05:35	16.1	16.1	16.1	84	13.4	8	11	202	0.0	1015.6	0	0.000	0.0
20090816 05:40	16.1	16.1	16.1	84	13.4	6	14	202	0.0	1015.6	0	0.000	0.0
20090816 05:45	16.1	16.1	16.1	84	13.3	6	10	202	0.0	1015.6	0	0.000	0.0
20090816 05:50	16.0	16.0	16.0	85	13.5	6	10	202	0.0	1015.6	0	0.000	0.0
20090816 05:55	15.9	15.9	15.9	85	13.4	5	8	202	0.0	1015.6	0	0.000	0.0
20090816 06:00	15.9	15.9	15.9	85	13.4	3	6	202	0.0	1015.7	0	0.025	0.0
20090816 06:05	15.8	15.8	15.8	85	13.3	5	8	202	0.0	1015.9	0	0.000	0.0
20090816 06:10	15.8	15.8	15.8	85	13.3	5	8	202	0.0	1015.9	0	0.000	0.0
20090816 06:15	15.8	15.8	15.8	85	13.3	5	8	202	0.0	1015.9	5	0.000	0.0
20090816 06:20	15.8	15.8	15.8	85	13.3	5	8	202	0.0	1015.9	8	0.000	0.0
20090816 06:25	15.8	15.8	15.8	85	13.3	5	8	202	0.0	1015.9	10	0.000	0.0
20090816 06:30	15.8	15.8	15.8	85	13.3	5	8	202	0.0	1016.0	12	0.000	0.0
20090816 06:35	15.8	15.8	15.8	85	13.3	3	8	315	0.0	1016.1	15	0.000	0.0
20090816 06:40	15.8	15.8	15.8	85	13.3	3	8	270	0.0	1016.1	18	0.000	0.0
20090816 06:45	15.8	15.8	15.8	85	13.3	3	8	248	0.0	1016.2	20	0.000	0.0
20090816 06:50	15.8	15.8	15.8	85	13.3	3	8	270	0.0	1016.3	24	0.000	0.0
20090816 06:55	15.8	15.8	15.8	85	13.3	2	5	270	0.0	1016.3	26	0.000	0.0
20090816 07:00	15.8	15.8	15.8	86	13.5	3	6	248	0.0	1016.4	28	0.025	0.0
20090816 07:05	15.9	15.9	15.9	86	13.5	2	5	248	0.0	1016.6	31	0.000	0.0
20090816 07:10	15.9	15.9	15.9	85	13.4	3	6	248	0.0	1016.6	33	0.000	0.0
20090816 07:15	16.1	16.1	16.1	86	13.7	2	5	248	0.0	1016.6	36	0.000	0.0
20090816 07:20	16.2	16.2	16.2	85	13.6	3	8	225	0.0	1016.5	38	0.000	0.0
20090816 07:25	16.4	16.4	16.4	85	13.9	5	8	180	0.0	1016.5	40	0.000	0.0
20090816 07:30	16.6	16.6	16.6	84	13.9	5	10	202	0.0	1016.5	61	0.000	0.0
20090816 07:35	16.9	16.9	16.9	83	14.0	6	11	202	0.0	1016.5	136	0.000	0.0
20090816 07:40	17.2	17.2	17.2	83	14.3	5	10	202	0.0	1016.5	151	0.000	0.0
20090816 07:45	17.6	17.6	17.6	82	14.5	6	10	202	0.0	1016.4	166	0.000	0.2
20090816 07:50	18.0	18.0	18.0	81	14.7	6	14	202	0.0	1016.4	184	0.000	0.5
20090816 07:55	18.3	18.3	18.3	80	14.8	8	13	202	0.0	1016.4	200	0.000	0.5
20090816 08:00	18.6	18.6	18.6	80	15.1	6	10	202	0.0	1016.4	215	0.076	0.6
20090816 08:05	18.9	18.9	18.9	79	15.2	5	10	202	0.0	1016.5	230	0.000	0.6
20090816 08:10	19.3	19.3	19.3	77	15.1	6	10	202	0.0	1016.5	244	0.000	0.7
20090816 08:15	19.6	19.6	19.6	79	15.9	5	8	202	0.0	1016.6	257	0.000	0.8
20090816 08:20	20.1	20.1	20.1	78	16.1	3	8	202	0.0	1016.4	270	0.000	0.9
20090816 08:25	20.5	20.5	20.5	74	15.7	3	8	248	0.0	1016.5	284	0.000	0.9
20090816 08:30	20.8	20.8	20.8	74	16.0	3	6	248	0.0	1016.4	298	0.000	1.0
20090816 08:35	21.2	21.2	21.2	72	15.9	5	6	248	0.0	1016.3	312	0.000	1.1
20090816 08:40	21.4	21.4	21.4	71	16.0	3	8	248	0.0	1016.3	327	0.000	1.2
20090816 08:45	21.7	21.7	21.7	69	15.8	3	10	248	0.0	1016.4	339	0.000	1.3
20090816 08:50	22.1	22.1	22.1	68	15.9	3	8	248	0.0	1016.3	352	0.000	1.3
20090816 08:55	22.3	22.3	22.3	67	15.8	3	10	248	0.0	1016.3	367	0.000	1.4
20090816 09:00	22.5	22.5	22.5	66	15.8	5	8	248	0.0	1016.3	381	0.203	1.6
20090816 09:05	22.7	22.7	22.7	65	15.7	8	14	248	0.0	1016.4	394	0.000	1.7
20090816 09:10	22.8	22.8	22.8	65	15.8	5	10	248	0.0	1016.4	408	0.000	1.8
20090816 09:15	23.0	23.0	23.0	65	16.1	5	11	248	0.0	1016.3	419	0.000	1.9
20090816 09:20	23.2	23.2	23.2	63	15.7	6	13	248	0.0	1016.2	431	0.000	2.0
20090816 09:25	23.3	23.3	23.3	63	15.9	8	16	270	0.0	1016.2	444	0.000	2.1
20090816 09:30	23.4	23.4	23.4	63	16.0	6	11	248	0.0	1016.3	443	0.000	2.2
20090816 09:35	23.5	23.5	23.5	62	15.8	8	18	248	0.0	1016.3	67	0.000	1.7
20090816 09:40	23.6	23.6	23.6	63	16.1	8	16	270	0.0	1016.3	63	0.000	1.7
20090816 09:45	23.6	23.6	23.6	61	15.6	8	18	270	0.0	1016.3	63	0.000	1.8
20090816 09:50	23.7	23.7	23.7	62	15.9	8	16	270	0.0	1016.3	63	0.000	1.9
20090816 09:55	23.7	23.7	23.7	62	16.0	10	16	248	0.0	1016.3	63	0.000	1.9
20090816 10:00	23.8	23.8	23.8	60	15.6	8	14	270	0.0	1016.3	63	0.178	2.0
20090816 10:05	23.9	23.9	25.2	61	16.0	6	16	270	0.0	1016.4	63	0.000	2.1
20090816 10:10	24.2	24.2	25.4	59	15.6	6	13	270	0.0	1016.5	63	0.000	2.1
20090816 10:15	24.3	24.3	25.5	59	15.7	8	14	270	0.0	1016.5	65	0.000	2.2
20090816 10:20	24.4	24.4	25.5	58	15.6	8	16	270	0.0	1016.6	65	0.000	2.2
20090816 10:25	24.4	24.4	25.6	59	15.9	6	14	270	0.0	1016.5	66	0.000	2.3
20090816 10:30	24.6	24.6	25.7	58	15.7	8	14	270	0.0	1016.6	83	0.000	2.4
20090816 10:35	24.7	24.7	25.8	57	15.6	6	14	248	0.0	1016.6	614	0.000	3.5
20090816 10:40	24.7	24.7	25.8	59	16.2	6	11	248	0.0	1016.5	623	0.000	4.2
20090816 10:45	24.9	24.9	25.9	58	16.0	6	13	270	0.0	1016.5	637	0.000	4.4
20090816 10:50	25.3	25.3	26.2	57	16.1	5	11	270	0.0	1016.5	647	0.000	4.5
20090816 10:55	25.7	25.7	26.5	55	15.9	6	11	270	0.0	1016.5	657	0.000	4.6
20090816 11:00	25.9	25.9	26.7	55	16.2	5	11	248	0.0	1016.4	666	0.279	4.8
20090816 11:05	26.2	26.2	26.9	54	16.1	6	19	248	0.0	1016.5	673	0.000	4.9
20090816 11:10	26.3	26.3	27.0	54	16.2	10	19	270	0.0	1016.5	687	0.000	5.1
20090816 11:15	26.4	26.4	27.1	53	16.1	10	16	292	0.0	1016.4	695	0.000	5.2
20090816 11:20	26.6	26.6	27.2	53	16.2	6	14	292	0.0	1016.3	703	0.000	5.3
20090816 11:25	26.8	26.8	27.4	53	16.4	5	11	292	0.0	1016.4	710	0.000	5.5
20090816 11:30	26.9	26.9	27.4	51	15.9	5	16	292	0.0	1016.3	718	0.000	5.6
20090816 11:35	27.1	27.1	27.6	51	16.1	5	10	270	0.0	1016.3	723	0.000	5.7
20090816 11:40	27.1	27.1	27.5	51	16.0	5	10	270	0.0	1016.3	732	0.000	5.8
20090816 11:45	26.9	26.9	27.4	50	15.6	8	14	292	0.0	1016.3	740	0.000	5.9
20090816 11:50	26.9	26.9	27.3	50	15.6	8	19	315	0.0	1016.3	746	0.000	6.0
20090816 11:55	27.0	27.0	27.5	52	16.3	6	16	292	0.0	1016.2	752	0.000	6.1
20090816 12:00	27.2	27.2	27.6	50	15.9	8	18	292	0.0	1016.2	759	0.508	6.2
20090816 12:05	27.3	27.3	27.6	48	15.3	8	18	292	0.0	1016.4	766	0.000	6.3
20090816 12:10	27.3	27.3	27.8	51	16.2	5	14	292	0.0	1016.3	769	0.000	6.4
20090816 12:15	27.4	27.4	27.9	50	16.1	8	18	292	0.0	1016.3	774	0.000	6.5
20090816 12:20	27.4	27.4	27.8	50	16.0	10	19	315	0.0	1016.3	777	0.000	6.6
20090816 12:25	27.4	27.4	27.9	50	16.1	5	14	315	0.0	1016.2	785	0.000	6.7
20090816 12:30	27.6	27.6	28.1	51	16.5	3	10	292	0.0	1016.1	786	0.000	6.7
20090816 12:35	27.8	27.8	28.3	51	16.7	8	14	315	0.0	1016.1	798	0.000	6.8
20090816 12:40	27.8	27.8	28.1	49	16.1	6	16	315	0.0	1016.0	798	0.000	6.9
20090816 12:45	27.8	27.8	28.2	49	16.1	8	18	292	0.0	1016.0	805	0.000	7.0
20090816 12:50	28.0	28.0	28.4	49	16.3	6	14	292	0.0	1015.9	791	0.000	6.9
20090816 12:55	28.1	28.1	28.6	50	16.7	5	11	292	0.0	1015.9	797	0.000	7.0
20090816 13:00	28.2	28.2	28.3	46	15.5	10	18	315	0.0	1015.9	805	0.559	7.0
20090816 13:05	28.3	28.3	28.5	47	15.9	10	19	315	0.0	1015.8	805	0.000	7.1
20090816 13:10	28.3	28.3	28.4	45	15.2	10	18	315	0.0	1015.8	796	0.000	7.0
20090816 13:15	28.3	28.3	28.4	46	15.5	8	18	292	0.0	1015.8	788	0.000	6.9
20090816 13:20	28.6	28.6	28.9	48	16.5	6	14	292	0.0	1015.7	801	0.000	7.0
20090816 13:25	28.7	28.7	28.7	45	15.5	10	21	292	0.0	1015.8	800	0.000	7.0
20090816 13:30	28.7	28.7	28.9	46	15.9	11	18	292	0.0	1015.6	810	0.000	7.0
20090816 13:35	28.8	28.8	28.9	46	16.0	13	23	292	0.0	1015.7	795	0.000	6.3
20090816 13:40	28.9	28.9	29.0	45	15.7	11	21	292	0.0	1015.6	798	0.000	7.0
20090816 13:45	28.8	28.8	28.8	44	15.3	11	26	315	0.0	1015.6	816	0.000	7.1
20090816 13:50	28.8	28.8	28.9	45	15.7	10	21	315	0.0	1015.6	807	0.000	7.0
20090816 13:55	29.0	29.0	29.1	45	15.8	5	11	292	0.0	1015.5	803	0.000	7.0
20090816 14:00	29.1	29.1	29.1	44	15.6	8	16	315	0.0	1015.4	797	0.610	6.9
20090816 14:05	29.1	29.1	29.2	45	15.9	8	18	292	0.0	1015.4	803	0.000	6.8
20090816 14:10	29.2	29.2	29.4	45	16.0	3	10	292	0.0	1015.4	794	0.000	6.8
20090816 14:15	29.2	29.2	29.4	45	16.0	5	16	315	0.0	1015.3	790	0.000	6.7
20090816 14:20	29.2	29.2	29.4	45	16.0	8	18	315	0.0	1015.3	785	0.000	6.7
20090816 14:25	29.2	29.2	29.2	44	15.7	5	18	270	0.0	1015.3	788	0.000	6.6
20090816 14:30	29.4	29.4	29.4	44	15.8	6	14	292	0.0	1015.2	781	0.000	6.4
20090816 14:35	29.4	29.4	29.5	44	15.9	6	19	315	0.0	1015.3	781	0.000	5.5
20090816 14:40	29.4	29.4	29.5	44	15.9	5	18	315	0.0	1015.2	785	0.000	6.3
20090816 14:45	29.6	29.6	29.4	42	15.3	6	18	315	0.0	1015.2	778	0.000	6.2
20090816 14:50	29.6	29.6	29.6	44	16.0	8	19	315	0.0	1015.2	768	0.000	6.1
20090816 14:55	29.7	29.7	29.8	44	16.1	2	11	22	0.0	1015.1	765	0.000	5.9
20090816 15:00	29.8	29.8	30.0	44	16.2	3	16	315	0.0	1014.9	766	0.559	5.3
20090816 15:05	30.0	30.0	30.1	43	16.0	8	18	292	0.0	1015.0	761	0.000	5.7
20090816 15:10	30.1	30.1	30.1	42	15.8	8	18	292	0.0	1015.0	745	0.000	5.5
20090816 15:15	30.2	30.2	30.1	42	15.8	10	16	292	0.0	1014.9	746	0.000	5.1
20090816 15:20	29.8	29.8	29.7	42	15.5	6	14	315	0.0	1014.9	491	0.000	4.8
20090816 15:25	29.8	29.8	29.8	43	15.8	8	18	292	0.0	1014.8	719	0.000	5.2
20090816 15:30	29.9	29.9	30.0	43	16.0	8	18	292	0.0	1014.8	705	0.000	5.0
20090816 15:35	30.4	30.4	30.3	41	15.6	10	21	292	0.0	1014.8	708	0.000	5.0
20090816 15:40	30.5	30.5	30.3	40	15.3	11	23	292	0.0	1014.8	691	0.000	4.8
20090816 15:45	30.6	30.6	30.4	40	15.4	6	18	292	0.0	1014.8	681	0.000	4.6
20090816 15:50	30.5	30.5	30.3	40	15.3	8	18	315	0.0	1014.8	668	0.000	4.4
20090816 15:55	30.6	30.6	30.4	40	15.4	10	19	315	0.0	1014.8	674	0.000	4.3
20090816 16:00	30.6	30.6	30.4	40	15.4	6	18	315	0.0	1014.8	661	0.533	4.2
20090816 16:05	30.6	30.6	30.4	40	15.4	10	19	292	0.0	1014.6	644	0.000	4.1
20090816 16:10	30.7	30.7	30.5	40	15.5	6	14	270	0.0	1014.7	641	0.000	3.6
20090816 16:15	30.6	30.6	30.3	39	15.1	6	16	315	0.0	1014.6	636	0.000	3.6
20090816 16:20	30.6	30.6	30.1	38	14.6	3	14	22	0.0	1014.6	620	0.000	3.6
20090816 16:25	30.6	30.6	30.3	39	15.1	5	18	292	0.0	1014.6	603	0.000	3.5
20090816 16:30	30.6	30.6	30.2	38	14.7	6	18	315	0.0	1014.7	578	0.000	3.2
20090816 16:35	30.6	30.6	30.2	38	14.7	3	11	292	0.0	1014.7	567	0.000	3.1
20090816 16:40	30.6	30.6	30.0	37	14.2	8	21	292	0.0	1014.7	563	0.000	3.0
20090816 16:45	30.6	30.6	30.0	37	14.2	13	23	292	0.0	1014.7	543	0.000	2.9
20090816 16:50	30.6	30.6	30.2	38	14.7	11	23	292	0.0	1014.6	532	0.000	2.7
20090816 16:55	30.6	30.6	29.8	35	13.4	10	19	315	0.0	1014.6	533	0.000	2.6
20090816 17:00	30.6	30.6	30.2	38	14.7	8	16	292	0.0	1014.6	483	0.483	2.4
20090816 17:05	30.7	30.7	30.1	37	14.3	10	18	292	0.0	1014.6	464	0.000	2.3
20090816 17:10	30.8	30.8	30.2	36	14.0	6	13	292	0.0	1014.6	497	0.000	2.3
20090816 17:15	31.1	31.1	30.4	36	14.2	5	13	292	0.0	1014.6	441	0.000	2.1
20090816 17:20	30.9	30.9	30.3	36	14.1	6	18	315	0.0	1014.7	416	0.000	1.9
20090816 17:25	30.6	30.6	29.8	35	13.4	8	18	292	0.0	1014.7	394	0.000	1.8
20090816 17:30	30.4	30.4	30.0	38	14.5	10	16	292	0.0	1014.7	412	0.000	1.7
20090816 17:35	30.4	30.4	30.0	39	14.9	6	14	292	0.0	1014.7	344	0.000	1.5
20090816 17:40	30.3	30.3	29.9	39	14.8	8	13	292	0.0	1014.7	322	0.000	1.4
20090816 17:45	30.3	30.3	29.7	37	14.0	6	18	292	0.0	1014.7	363	0.000	1.4
20090816 17:50	30.2	30.2	29.5	37	13.8	8	14	292	0.0	1014.7	332	0.000	1.3
20090816 17:55	30.1	30.1	29.4	37	13.7	10	16	292	0.0	1014.7	311	0.000	1.2
20090816 18:00	30.0	30.0	29.4	37	13.7	6	14	292	0.0	1014.7	312	0.356	1.1
20090816 18:05	30.1	30.1	29.5	37	13.8	6	10	292	0.0	1014.7	307	0.000	1.1
20090816 18:10	30.2	30.2	29.6	37	13.9	5	14	292	0.0	1014.7	277	0.000	1.0
20090816 18:15	30.1	30.1	29.8	40	15.0	5	11	315	0.0	1014.6	271	0.000	0.9
20090816 18:20	29.9	29.9	29.6	40	14.8	5	8	315	0.0	1014.5	246	0.000	0.8
20090816 18:25	29.6	29.6	29.1	38	13.8	6	11	315	0.0	1014.5	157	0.000	0.7
20090816 18:30	29.3	29.3	28.8	39	13.9	5	8	315	0.0	1014.4	131	0.000	0.6
20090816 18:35	29.1	29.1	28.8	41	14.4	3	6	315	0.0	1014.5	164	0.000	0.6
20090816 18:40	28.9	28.9	28.7	42	14.7	3	8	315	0.0	1014.5	177	0.000	0.5
20090816 18:45	28.8	28.8	28.7	43	15.0	3	6	315	0.0	1014.5	156	0.000	0.5
20090816 18:50	28.8	28.8	28.8	45	15.6	0	3	315	0.0	1014.4	137	0.000	0.0
20090816 18:55	28.6	28.6	28.7	46	15.8	2	5	315	0.0	1014.4	121	0.000	0.0
20090816 19:00	28.3	28.3	28.5	47	15.9	2	3	315	0.0	1014.3	107	0.178	0.0
20090816 19:05	28.0	28.0	28.4	49	16.3	2	3	315	0.0	1014.1	93	0.000	0.0
20090816 19:10	27.8	27.8	28.3	51	16.7	0	2	315	0.0	1014.0	85	0.000	0.0
20090816 19:15	27.6	27.6	28.2	52	16.9	0	2	315	0.0	1014.0	76	0.000	0.0
20090816 19:20	27.4	27.4	27.9	52	16.6	0	0	-100000	0.0	1014.1	68	0.000	0.0
20090816 19:25	27.1	27.1	27.7	52	16.4	0	2	315	0.0	1014.1	60	0.000	0.0
20090816 19:30	26.8	26.8	27.3	51	15.8	0	0	-100000	0.0	1014.1	55	0.000	0.0
20090816 19:35	26.6	26.6	27.1	51	15.6	0	0	-100000	0.0	1014.2	52	0.000	0.0
20090816 19:40	26.4	26.4	27.0	52	15.8	0	0	-100000	0.0	1014.1	49	0.000	0.0
20090816 19:45	26.3	26.3	26.9	52	15.6	0	0	-100000	0.0	1014.2	46	0.000	0.0
20090816 19:50	26.1	26.1	26.9	56	16.6	0	0	-100000	0.0	1014.1	41	0.000	0.0
20090816 19:55	25.9	25.9	26.8	58	17.0	0	0	-100000	0.0	1014.1	36	0.000	0.0
20090816 20:00	25.7	25.7	26.6	58	16.8	0	0	-100000	0.0	1014.1	28	0.051	0.0
20090816 20:05	25.6	25.6	26.4	58	16.7	0	0	-100000	0.0	1013.7	22	0.000	0.0
20090816 20:10	25.3	25.3	26.3	59	16.7	0	0	-100000	0.0	1013.8	17	0.000	0.0
20090816 20:15	25.1	25.1	26.1	61	17.0	0	0	-100000	0.0	1013.7	12	0.000	0.0
20090816 20:20	24.9	24.9	25.9	61	16.8	0	0	-100000	0.0	1013.8	7	0.000	0.0
20090816 20:25	24.7	24.7	25.8	61	16.7	0	0	-100000	0.0	1013.7	2	0.000	0.0
20090816 20:30	24.5	24.5	25.5	64	17.2	0	0	-100000	0.0	1013.9	0	0.000	0.0
20090816 20:35	24.3	24.3	25.4	63	16.8	0	0	-100000	0.0	1013.9	0	0.000	0.0
20090816 20:40	24.1	24.1	25.2	65	17.1	0	0	-100000	0.0	1014.0	0	0.000	0.0
20090816 20:45	23.8	23.8	23.8	65	16.8	0	2	315	0.0	1014.0	0	0.000	0.0
20090816 20:50	23.7	23.7	23.7	63	16.2	0	2	315	0.0	1014.1	0	0.000	0.0
20090816 20:55	23.4	23.4	23.4	63	16.0	0	2	315	0.0	1014.2	0	0.000	0.0
20090816 21:00	23.3	23.3	23.3	62	15.6	0	2	315	0.0	1014.2	0	0.025	0.0
20090816 21:05	23.2	23.2	23.2	62	15.5	0	3	315	0.0	1014.2	0	0.000	0.0
20090816 21:10	23.0	23.0	23.0	62	15.3	0	0	-100000	0.0	1014.3	0	0.000	0.0
20090816 21:15	22.9	22.9	22.9	63	15.5	0	0	-100000	0.0	1014.3	0	0.000	0.0
20090816 21:20	22.8	22.8	22.8	64	15.6	2	5	315	0.0	1014.3	0	0.000	0.0
20090816 21:25	22.6	22.6	22.6	66	15.9	2	5	315	0.0	1014.4	0	0.000	0.0
20090816 21:30	22.3	22.3	22.3	66	15.7	0	2	292	0.0	1014.6	0	0.000	0.0
20090816 21:35	22.1	22.1	22.1	68	15.9	0	3	292	0.0	1014.6	0	0.000	0.0
20090816 21:40	21.8	21.8	21.8	69	15.9	2	5	292	0.0	1014.6	0	0.000	0.0
20090816 21:45	21.7	21.7	21.7	70	15.9	2	3	292	0.0	1014.6	0	0.000	0.0
20090816 21:50	21.6	21.6	21.6	70	15.8	3	6	248	0.0	1014.6	0	0.000	0.0
20090816 21:55	21.4	21.4	21.4	70	15.7	3	6	248	0.0	1014.7	0	0.000	0.0
20090816 22:00	21.4	21.4	21.4	70	15.7	5	8	248	0.0	1014.7	0	0.051	0.0
20090816 22:05	21.3	21.3	21.3	70	15.6	3	6	248	0.0	1014.5	0	0.000	0.0
20090816 22:10	21.2	21.2	21.2	70	15.5	2	8	225	0.0	1014.6	0	0.000	0.0
20090816 22:15	21.1	21.1	21.1	70	15.4	3	6	225	0.0	1014.6	0	0.000	0.0
20090816 22:20	21.0	21.0	21.0	70	15.3	3	6	225	0.0	1014.6	0	0.000	0.0
20090816 22:25	20.9	20.9	20.9	71	15.5	3	6	225	0.0	1014.6	0	0.000	0.0
20090816 22:30	20.8	20.8	20.8	70	15.2	3	8	225	0.0	1014.7	0	0.000	0.0
20090816 22:35	20.7	20.7	20.7	70	15.0	3	6	225	0.0	1014.7	0	0.000	0.0
20090816 22:40	20.7	20.7	20.7	71	15.2	3	6	225	0.0	1014.6	0	0.000	0.0
20090816 22:45	20.6	20.6	20.6	71	15.2	3	6	225	0.0	1014.6	0	0.000	0.0
20090816 22:50	20.5	20.5	20.5	72	15.3	3	6	225	0.0	1014.6	0	0.000	0.0
20090816 22:55	20.4	20.4	20.4	72	15.2	3	6	225	0.0	1014.7	0	0.000	0.0
20090816 23:00	20.3	20.3	20.3	72	15.1	3	8	225	0.0	1014.7	0	0.025	0.0
20090816 23:05	20.3	20.3	20.3	73	15.3	3	8	225	0.0	1014.6	0	0.000	0.0
20090816 23:10	20.2	20.2	20.2	73	15.2	5	8	225	0.0	1014.7	0	0.000	0.0
20090816 23:15	20.1	20.1	20.1	73	15.1	3	5	225	0.0	1014.7	0	0.000	0.0
20090816 23:20	20.1	20.1	20.1	73	15.1	3	8	225	0.0	1014.7	0	0.000	0.0
20090816 23:25	20.0	20.0	20.0	73	15.0	3	8	225	0.0	1014.7	0	0.000	0.0
20090816 23:30	20.0	20.0	20.0	73	15.0	3	6	202	0.0	1014.7	0	0.000	0.0
20090816 23:35	19.9	19.9	19.9	73	15.0	3	6	202	0.0	1014.7	0	0.000	0.0
20090816 23:40	19.9	19.9	19.9	73	14.9	3	6	202	0.0	1014.7	0	0.000	0.0
20090816 23:45	19.7	19.7	19.7	74	15.0	3	8	202	0.0	1014.7	0	0.000	0.0
20090816 23:50	19.7	19.7	19.7	74	14.9	2	6	202	0.0	1014.7	0	0.000	0.0
20090816 23:55	19.6	19.6	19.6	74	14.8	2	6	202	0.0	1014.7	0	0.000	0.0



Please note the license to use and transfer of this data:
http://creativecommons.org/licenses/by-nc-sa/3.0/deed.en

Bitte beachten sie die Lizenz zur Verwertung und Weitergabe der Daten:
http://creativecommons.org/licenses/by-nc-sa/3.0/deed.de

zurück zur Übersicht der Archivdaten (Monats und Tagesdaten)

Cookies helfen bei der Bereitstellung von Inhalten. Durch die Nutzung dieser Seiten erklärst du dich damit einverstanden, dass Cookies auf deinem Rechner gespeichert werden. Weitere Information